Time;durP1;ratioP1;P1;durP2;ratioP2;P2;SDS_P1;SDS_P2;PMS_P1;PMS_P2;Temp;Humidity;BMP_temperature;BMP_pressure;BME280_temperature;BME280_humidity;BME280_pressure;Samples;Min_cycle;Max_cycle;Signal;HPM_P1;HPM_P2
2024/03/14 00:01:16;;;;;;;5.60;2.23;;;;;;;10.26;81.20;100948.66;5036101;28;20428;-70
2024/03/14 00:03:45;;;;;;;2.43;1.93;;;;;;;10.26;81.79;100951.38;5060462;28;20836;-69
2024/03/14 00:06:16;;;;;;;6.17;3.47;;;;;;;10.36;81.52;100951.84;5053466;28;20470;-70
2024/03/14 00:08:46;;;;;;;3.80;2.80;;;;;;;10.39;81.89;100948.72;5056837;28;20514;-69
2024/03/14 00:11:15;;;;;;;3.63;1.83;;;;;;;10.35;82.86;100952.88;5054608;28;20860;-68
2024/03/14 00:13:45;;;;;;;3.20;2.27;;;;;;;10.54;82.78;100946.72;5052993;28;20941;-69
2024/03/14 00:16:15;;;;;;;4.40;2.07;;;;;;;10.57;84.59;100951.72;5039241;28;20800;-69
2024/03/14 00:18:44;;;;;;;3.13;2.40;;;;;;;10.70;85.38;100951.78;5061847;28;20454;-68
2024/03/14 00:21:14;;;;;;;4.43;2.43;;;;;;;10.44;89.36;100946.25;5055150;28;20576;-68
2024/03/14 00:23:44;;;;;;;7.10;2.50;;;;;;;10.34;90.28;100943.91;5042224;28;20497;-69
2024/03/14 00:26:15;;;;;;;2.43;1.87;;;;;;;10.29;94.61;100945.56;5055350;28;20829;-69
2024/03/14 00:28:44;;;;;;;6.93;2.83;;;;;;;10.06;98.94;100942.25;5055465;28;20453;-70
2024/03/14 00:31:13;;;;;;;3.70;2.30;;;;;;;9.85;100.00;100938.56;5053647;28;20945;-69
2024/03/14 00:33:43;;;;;;;7.83;2.90;;;;;;;9.62;100.00;100939.81;5035846;28;20852;-69
2024/03/14 00:36:14;;;;;;;2.97;2.00;;;;;;;9.50;100.00;100937.63;5039500;28;20443;-68
2024/03/14 00:38:44;;;;;;;2.20;1.90;;;;;;;9.58;100.00;100934.78;5054864;28;20435;-69
2024/03/14 00:41:14;;;;;;;4.72;3.53;;;;;;;9.53;100.00;100937.28;5036837;28;20219;-69
2024/03/14 00:43:43;;;;;;;3.72;2.88;;;;;;;9.46;100.00;100936.38;5060595;28;20247;-70
2024/03/14 00:46:12;;;;;;;2.03;1.83;;;;;;;9.43;100.00;100936.75;5060230;28;20209;-69
2024/03/14 00:48:42;;;;;;;5.35;2.80;;;;;;;9.41;100.00;100927.16;5064422;28;20451;-70
2024/03/14 00:51:11;;;;;;;5.75;3.80;;;;;;;9.39;100.00;100932.75;5043405;28;20593;-68
2024/03/14 00:53:40;;;;;;;5.68;2.88;;;;;;;9.44;100.00;100934.91;5041725;28;20217;-69
2024/03/14 00:56:12;;;;;;;4.13;3.30;;;;;;;9.43;100.00;100930.53;5061236;28;20288;-68
2024/03/14 00:58:41;;;;;;;6.22;3.25;;;;;;;9.29;100.00;100937.66;5039773;28;20283;-69
2024/03/14 01:01:10;;;;;;;4.97;2.65;;;;;;;9.42;100.00;100923.44;5044337;28;20197;-70
2024/03/14 01:03:39;;;;;;;9.68;3.50;;;;;;;9.24;100.00;100925.78;5064840;28;20210;-69
2024/03/14 01:06:11;;;;;;;3.78;3.40;;;;;;;9.34;100.00;100921.72;5045287;28;20204;-67
2024/03/14 01:08:40;;;;;;;5.10;2.47;;;;;;;9.19;100.00;100914.72;5064324;28;20219;-68
2024/03/14 01:11:09;;;;;;;10.90;2.58;;;;;;;9.12;100.00;100912.75;5042041;28;20222;-69
2024/03/14 01:13:38;;;;;;;3.08;2.35;;;;;;;9.12;100.00;100920.03;5040039;28;20681;-69
2024/03/14 01:16:08;;;;;;;4.57;2.40;;;;;;;9.36;100.00;100913.41;5040548;28;20182;-69
2024/03/14 01:18:37;;;;;;;3.80;2.60;;;;;;;9.31;100.00;100910.44;5035392;28;20203;-69
2024/03/14 01:21:07;;;;;;;2.35;2.05;;;;;;;9.19;100.00;100912.00;5059539;28;20192;-69
2024/03/14 01:23:37;;;;;;;7.05;3.53;;;;;;;9.28;100.00;100905.44;5055967;28;20196;-69
2024/03/14 01:26:06;;;;;;;6.55;3.00;;;;;;;9.40;100.00;100909.28;5025492;28;20576;-69
2024/03/14 01:28:35;;;;;;;6.33;3.57;;;;;;;9.31;100.00;100905.88;5035281;28;20228;-68
2024/03/14 01:31:05;;;;;;;6.93;2.92;;;;;;;9.37;100.00;100909.69;5055172;28;20435;-68
2024/03/14 01:33:34;;;;;;;7.80;3.42;;;;;;;9.29;100.00;100907.13;5050600;28;20558;-69
2024/03/14 01:36:04;;;;;;;8.32;3.15;;;;;;;9.17;100.00;100904.09;5030922;28;20181;-68
2024/03/14 01:38:34;;;;;;;4.68;2.70;;;;;;;9.02;100.00;100898.75;5050551;28;20192;-68
2024/03/14 01:41:03;;;;;;;6.38;2.72;;;;;;;9.30;100.00;100900.66;5032626;28;20188;-69
2024/03/14 01:43:33;;;;;;;6.75;2.65;;;;;;;9.11;100.00;100894.88;5050679;28;20193;-69
2024/03/14 01:46:02;;;;;;;7.93;3.42;;;;;;;9.24;100.00;100893.38;5031002;28;20268;-69
2024/03/14 01:48:31;;;;;;;4.57;3.00;;;;;;;9.19;100.00;100895.81;5053376;28;20196;-69
2024/03/14 01:51:00;;;;;;;6.65;3.25;;;;;;;9.27;100.00;100890.25;5049406;28;20203;-68
2024/03/14 01:53:29;;;;;;;5.63;2.50;;;;;;;9.21;100.00;100889.16;5052054;28;20193;-69
2024/03/14 01:55:58;;;;;;;10.00;3.97;;;;;;;9.21;100.00;100888.34;5059170;28;20181;-69
2024/03/14 01:58:27;;;;;;;4.83;2.63;;;;;;;9.30;100.00;100887.16;5031807;28;20773;-68
2024/03/14 02:00:56;;;;;;;3.38;2.50;;;;;;;9.21;100.00;100891.88;5055647;28;20471;-69
2024/03/14 02:03:25;;;;;;;5.00;3.28;;;;;;;9.31;100.00;100888.84;5056009;28;20280;-68
2024/03/14 02:05:54;;;;;;;5.47;4.07;;;;;;;9.33;100.00;100889.50;5040709;28;20201;-71
2024/03/14 02:08:23;;;;;;;7.93;4.30;;;;;;;9.39;100.00;100886.03;5063501;28;20243;-69
2024/03/14 02:10:52;;;;;;;4.78;2.47;;;;;;;9.38;100.00;100882.50;5038356;28;20236;-69
2024/03/14 02:13:21;;;;;;;4.97;2.78;;;;;;;9.44;100.00;100878.19;5055608;28;20246;-69
2024/03/14 02:15:50;;;;;;;10.00;4.32;;;;;;;9.35;100.00;100873.91;5046589;28;20242;-69
2024/03/14 02:18:19;;;;;;;7.70;4.90;;;;;;;9.32;100.00;100877.03;5037128;28;20279;-67
2024/03/14 02:20:48;;;;;;;6.60;4.03;;;;;;;9.31;100.00;100873.47;5036030;28;20302;-69
2024/03/14 02:23:17;;;;;;;4.33;3.83;;;;;;;9.52;100.00;100865.34;5034767;28;20682;-69
2024/03/14 02:25:46;;;;;;;5.45;3.90;;;;;;;9.53;100.00;100871.59;5027590;28;20443;-68
2024/03/14 02:28:15;;;;;;;4.70;3.17;;;;;;;9.56;100.00;100868.50;5037495;28;20197;-69
2024/03/14 02:30:44;;;;;;;7.00;4.28;;;;;;;9.57;100.00;100868.31;5035435;28;20761;-70
2024/03/14 02:33:13;;;;;;;10.65;4.32;;;;;;;9.54;100.00;100868.69;5035340;28;20188;-69
2024/03/14 02:35:42;;;;;;;5.68;5.18;;;;;;;9.59;100.00;100865.38;5037396;28;20213;-68
2024/03/14 02:38:11;;;;;;;4.22;2.75;;;;;;;9.63;100.00;100863.16;5053858;28;20189;-68
2024/03/14 02:40:40;;;;;;;5.78;4.90;;;;;;;9.71;100.00;100869.22;5030464;28;20295;-71
2024/03/14 02:43:09;;;;;;;7.23;4.70;;;;;;;9.67;100.00;100862.56;5033801;28;20270;-68
2024/03/14 02:45:38;;;;;;;7.10;3.57;;;;;;;9.60;100.00;100862.50;5034909;28;20451;-68
2024/03/14 02:48:07;;;;;;;7.30;3.07;;;;;;;9.64;100.00;100862.94;5058302;28;20467;-68
2024/03/14 02:50:36;;;;;;;6.47;3.50;;;;;;;9.79;100.00;100863.66;5037133;28;20442;-69
2024/03/14 02:53:05;;;;;;;4.30;3.03;;;;;;;9.79;100.00;100866.38;5036732;28;20192;-68
2024/03/14 02:55:34;;;;;;;9.37;5.07;;;;;;;9.79;100.00;100860.13;5048161;28;20473;-69
2024/03/14 02:58:03;;;;;;;7.28;3.47;;;;;;;9.71;100.00;100855.72;5036398;28;20439;-68
2024/03/14 03:00:32;;;;;;;8.70;4.70;;;;;;;9.80;100.00;100857.25;5056051;28;20226;-69
2024/03/14 03:03:01;;;;;;;6.57;3.83;;;;;;;9.81;100.00;100858.91;5056446;28;20428;-68
2024/03/14 03:05:30;;;;;;;8.30;3.70;;;;;;;9.89;100.00;100861.44;5036385;28;20430;-67
2024/03/14 03:07:59;;;;;;;6.13;4.17;;;;;;;9.87;100.00;100863.53;5051774;28;20459;-68
2024/03/14 03:10:28;;;;;;;4.87;3.23;;;;;;;9.96;100.00;100858.78;5037050;28;20455;-68
2024/03/14 03:12:57;;;;;;;3.50;1.98;;;;;;;9.91;100.00;100848.59;5033842;28;20434;-69
2024/03/14 03:15:25;;;;;;;7.53;3.77;;;;;;;9.94;100.00;100852.75;5015300;28;20196;-69
2024/03/14 03:17:54;;;;;;;5.10;3.20;;;;;;;9.83;100.00;100856.81;5033953;28;20419;-68
2024/03/14 03:20:23;;;;;;;6.40;4.30;;;;;;;9.90;100.00;100857.72;5033777;28;20463;-67
2024/03/14 03:23:08;;;;;;;8.30;5.25;;;;;;;9.92;100.00;100854.81;5052511;28;20864;-68
2024/03/14 03:25:36;;;;;;;8.43;6.03;;;;;;;10.13;100.00;100852.00;5038535;28;20207;-69
2024/03/14 03:28:09;;;;;;;9.37;5.40;;;;;;;9.92;100.00;100847.53;5052503;28;20553;-68
2024/03/14 03:31:08;;;;;;;8.33;3.60;;;;;;;9.99;100.00;100851.13;5036373;28;20478;-69
2024/03/14 03:33:36;;;;;;;5.50;4.30;;;;;;;10.15;100.00;100849.13;5051383;28;20400;-68
2024/03/14 03:36:05;;;;;;;7.10;3.20;;;;;;;10.10;100.00;100849.72;5051704;28;20439;-68
2024/03/14 03:38:38;;;;;;;6.67;5.07;;;;;;;10.27;100.00;100852.94;5035641;28;20420;-69
2024/03/14 03:41:06;;;;;;;4.17;3.23;;;;;;;10.24;100.00;100853.34;5033201;28;20434;-68
2024/03/14 03:43:35;;;;;;;3.97;2.30;;;;;;;10.19;100.00;100850.41;5049364;28;20447;-69
2024/03/14 03:46:06;;;;;;;7.50;3.83;;;;;;;10.10;100.00;100851.59;5052282;28;20514;-68
2024/03/14 03:48:37;;;;;;;4.07;2.70;;;;;;;10.01;100.00;100850.94;5054788;28;20474;-68
2024/03/14 03:51:05;;;;;;;7.90;4.43;;;;;;;10.08;100.00;100851.78;5053020;28;20419;-68
2024/03/14 03:53:34;;;;;;;9.93;6.57;;;;;;;10.19;100.00;100851.25;5051000;28;20451;-68
2024/03/14 03:56:02;;;;;;;8.20;4.63;;;;;;;10.19;100.00;100847.72;5047331;28;20416;-69
2024/03/14 03:58:32;;;;;;;16.00;5.53;;;;;;;10.06;100.00;100851.16;5035539;28;20435;-70
2024/03/14 04:01:06;;;;;;;8.50;4.13;;;;;;;10.19;100.00;100855.81;5029648;28;20895;-69
2024/03/14 04:03:35;;;;;;;7.40;3.90;;;;;;;10.27;100.00;100855.66;5049297;28;20411;-68
2024/03/14 04:06:03;;;;;;;17.23;5.40;;;;;;;10.18;100.00;100854.16;5036277;28;20428;-68
2024/03/14 04:08:32;;;;;;;5.87;3.63;;;;;;;10.31;100.00;100849.63;5031112;28;20470;-68
2024/03/14 04:11:00;;;;;;;4.97;3.10;;;;;;;10.36;100.00;100857.97;5051882;28;20431;-68
2024/03/14 04:13:29;;;;;;;6.17;4.33;;;;;;;10.29;100.00;100859.00;5032610;28;20972;-68
2024/03/14 04:16:00;;;;;;;6.43;4.10;;;;;;;10.21;100.00;100853.75;5032286;28;20932;-69
2024/03/14 04:18:29;;;;;;;8.17;4.60;;;;;;;10.28;100.00;100857.31;5033197;28;20987;-68
2024/03/14 04:20:58;;;;;;;4.37;3.77;;;;;;;10.32;100.00;100845.06;5042087;28;20546;-70
2024/03/14 04:23:27;;;;;;;5.90;5.17;;;;;;;10.29;100.00;100853.59;5042899;28;20454;-69
2024/03/14 04:25:56;;;;;;;8.90;5.80;;;;;;;10.39;100.00;100854.88;5059037;28;20916;-69
2024/03/14 04:28:25;;;;;;;6.57;4.37;;;;;;;10.41;100.00;100846.56;5052338;28;20440;-68
2024/03/14 04:30:54;;;;;;;6.33;4.77;;;;;;;10.33;100.00;100852.16;5051993;28;20447;-69
2024/03/14 04:33:23;;;;;;;5.93;4.43;;;;;;;10.40;100.00;100853.03;5049885;28;20927;-69
2024/03/14 04:35:52;;;;;;;10.93;4.37;;;;;;;10.35;100.00;100860.91;5051314;28;20427;-68
2024/03/14 04:38:23;;;;;;;13.00;6.07;;;;;;;10.39;100.00;100856.75;5049262;28;20526;-69
2024/03/14 04:40:53;;;;;;;8.50;3.97;;;;;;;10.41;100.00;100855.50;5057777;28;20467;-69
2024/03/14 04:43:24;;;;;;;4.80;3.83;;;;;;;10.46;100.00;100858.44;5048292;28;20948;-70
2024/03/14 04:45:53;;;;;;;15.90;4.37;;;;;;;10.41;100.00;100855.50;5041925;28;20464;-70
2024/03/14 04:48:22;;;;;;;7.57;4.07;;;;;;;10.27;100.00;100858.34;5034775;28;20828;-69
2024/03/14 04:50:51;;;;;;;14.10;5.30;;;;;;;10.49;100.00;100857.22;5059303;28;20530;-68
2024/03/14 04:53:20;;;;;;;4.50;3.00;;;;;;;10.48;100.00;100860.94;5031145;28;20809;-69
2024/03/14 04:55:49;;;;;;;8.23;5.20;;;;;;;10.34;100.00;100854.66;5034326;28;20480;-68
2024/03/14 04:58:18;;;;;;;9.77;5.30;;;;;;;10.49;100.00;100856.38;5031500;28;20458;-70
2024/03/14 05:00:47;;;;;;;7.77;4.50;;;;;;;10.53;100.00;100855.75;5030450;28;20455;-69
2024/03/14 05:03:16;;;;;;;14.20;5.00;;;;;;;10.44;100.00;100865.09;5051070;28;20782;-69
2024/03/14 05:05:45;;;;;;;9.83;4.93;;;;;;;10.38;100.00;100858.63;5057001;28;20431;-70
2024/03/14 05:08:14;;;;;;;9.30;5.87;;;;;;;10.43;100.00;100868.84;5050559;28;20503;-70
2024/03/14 05:10:43;;;;;;;6.07;4.13;;;;;;;10.46;100.00;100861.16;5032243;28;20482;-68
2024/03/14 05:13:12;;;;;;;12.30;5.13;;;;;;;10.56;100.00;100857.22;5023051;28;20432;-68
2024/03/14 05:15:41;;;;;;;9.40;4.50;;;;;;;10.63;100.00;100860.78;5026360;28;20496;-70
2024/03/14 05:18:10;;;;;;;10.93;6.27;;;;;;;10.73;100.00;100864.78;5023027;28;20435;-69
2024/03/14 05:20:41;;;;;;;11.03;5.17;;;;;;;10.55;100.00;100856.41;5034098;28;20482;-68
2024/03/14 05:23:10;;;;;;;8.00;4.80;;;;;;;10.49;100.00;100857.22;5054180;28;20423;-69
2024/03/14 05:25:39;;;;;;;14.33;5.43;;;;;;;10.65;100.00;100864.94;5032604;28;20439;-69
2024/03/14 05:28:08;;;;;;;12.73;4.53;;;;;;;10.45;100.00;100851.38;5038870;28;20466;-69
2024/03/14 05:30:37;;;;;;;7.57;4.30;;;;;;;10.51;100.00;100854.28;5048876;28;20453;-68
2024/03/14 05:33:06;;;;;;;8.77;3.97;;;;;;;10.54;100.00;100848.50;5047997;28;20419;-69
2024/03/14 05:35:35;;;;;;;6.77;4.00;;;;;;;10.54;100.00;100848.50;5064254;28;20931;-69
2024/03/14 05:38:04;;;;;;;8.87;4.63;;;;;;;10.54;100.00;100851.19;5053750;28;20416;-68
2024/03/14 05:40:33;;;;;;;10.90;6.37;;;;;;;10.54;100.00;100837.66;5055873;28;20422;-69
2024/03/14 05:43:03;;;;;;;10.30;4.93;;;;;;;10.57;100.00;100846.19;5044154;28;20848;-69
2024/03/14 05:45:34;;;;;;;8.10;4.60;;;;;;;10.70;100.00;100848.09;5053746;28;20398;-68
2024/03/14 05:48:09;;;;;;;8.83;4.80;;;;;;;10.61;100.00;100850.16;5032401;28;20850;-69
2024/03/14 05:50:38;;;;;;;10.63;6.43;;;;;;;10.65;100.00;100840.59;5052816;28;20450;-71
2024/03/14 05:53:07;;;;;;;7.20;4.47;;;;;;;10.70;100.00;100848.94;5052721;28;20538;-69
2024/03/14 05:55:37;;;;;;;12.83;7.80;;;;;;;10.78;100.00;100846.06;5054258;28;20949;-69
2024/03/14 05:58:06;;;;;;;12.00;6.53;;;;;;;10.78;100.00;100853.34;5029502;28;20852;-69
2024/03/14 06:00:35;;;;;;;18.37;6.13;;;;;;;10.87;100.00;100846.69;5045760;28;20431;-68
2024/03/14 06:03:04;;;;;;;12.90;5.37;;;;;;;10.76;100.00;100853.53;5032209;28;20405;-69
2024/03/14 06:05:33;;;;;;;14.87;5.83;;;;;;;10.97;100.00;100860.69;5053085;28;20430;-70
2024/03/14 06:08:02;;;;;;;8.77;5.70;;;;;;;10.98;100.00;100854.22;5037565;28;20509;-70
2024/03/14 06:10:31;;;;;;;12.40;5.30;;;;;;;10.85;100.00;100860.44;5035891;28;20427;-69
2024/03/14 06:13:00;;;;;;;6.60;3.67;;;;;;;10.88;100.00;100857.34;5052818;28;20456;-69
2024/03/14 06:15:30;;;;;;;12.43;5.50;;;;;;;10.85;100.00;100857.72;5049739;28;20458;-69
2024/03/14 06:17:59;;;;;;;14.13;5.20;;;;;;;10.87;100.00;100854.81;5054053;28;20496;-69
2024/03/14 06:20:30;;;;;;;7.03;4.17;;;;;;;10.97;100.00;100857.97;5053716;28;20439;-68
2024/03/14 06:22:59;;;;;;;10.27;4.57;;;;;;;10.98;100.00;100865.06;5037192;28;20409;-69
2024/03/14 06:25:31;;;;;;;10.97;6.47;;;;;;;10.95;100.00;100857.34;5052895;28;20423;-70
2024/03/14 06:28:02;;;;;;;11.23;7.07;;;;;;;10.98;100.00;100861.53;5037534;28;20465;-70
2024/03/14 06:30:32;;;;;;;8.90;4.67;;;;;;;10.89;100.00;100855.47;5052769;28;20451;-70
2024/03/14 06:33:02;;;;;;;11.57;5.87;;;;;;;10.86;100.00;100863.97;5053167;28;20447;-69
2024/03/14 06:35:31;;;;;;;6.27;4.07;;;;;;;10.94;100.00;100871.91;5051338;28;20467;-68
2024/03/14 06:38:01;;;;;;;10.00;5.27;;;;;;;11.01;100.00;100866.50;5038306;28;20466;-68
2024/03/14 06:40:37;;;;;;;5.73;3.57;;;;;;;11.11;100.00;100878.63;5053839;28;20495;-69
2024/03/14 06:43:06;;;;;;;7.67;4.80;;;;;;;11.11;100.00;100866.94;5053456;28;20443;-70
2024/03/14 06:45:35;;;;;;;8.83;5.13;;;;;;;11.07;100.00;100863.81;5056885;28;20446;-69
2024/03/14 06:48:04;;;;;;;17.93;9.30;;;;;;;11.02;100.00;100863.59;5058797;28;20510;-69
2024/03/14 06:50:34;;;;;;;13.23;6.10;;;;;;;11.13;100.00;100868.44;5061874;28;20470;-69
2024/03/14 06:53:03;;;;;;;17.83;6.60;;;;;;;11.06;100.00;100862.16;5056833;28;20427;-69
2024/03/14 06:55:31;;;;;;;12.20;7.33;;;;;;;11.16;100.00;100870.72;5061553;28;20402;-68
2024/03/14 06:58:00;;;;;;;14.20;6.77;;;;;;;11.25;100.00;100880.28;5050300;28;20438;-71
2024/03/14 07:00:30;;;;;;;11.77;5.63;;;;;;;11.30;100.00;100876.97;5048708;28;20466;-69
2024/03/14 07:02:59;;;;;;;10.73;7.13;;;;;;;11.50;100.00;100872.41;5029342;28;20802;-69
2024/03/14 07:05:31;;;;;;;7.93;4.50;;;;;;;11.62;100.00;100884.25;5035058;28;20546;-69
2024/03/14 07:08:03;;;;;;;7.23;5.47;;;;;;;11.63;100.00;100872.38;5040353;28;20430;-69
2024/03/14 07:10:32;;;;;;;13.63;7.00;;;;;;;11.64;100.00;100874.06;5048956;28;20974;-70
2024/03/14 07:13:00;;;;;;;18.50;9.53;;;;;;;11.84;100.00;100876.78;5032216;28;20508;-68
2024/03/14 07:15:29;;;;;;;9.37;5.50;;;;;;;11.85;100.00;100874.91;5051582;28;20462;-68
2024/03/14 07:17:58;;;;;;;13.10;7.07;;;;;;;11.77;100.00;100879.50;5036993;28;20952;-69
2024/03/14 07:20:33;;;;;;;10.87;6.53;;;;;;;11.84;100.00;100884.91;5035535;28;20471;-68
2024/03/14 07:23:02;;;;;;;17.37;6.70;;;;;;;12.02;100.00;100887.78;5045094;28;20429;-66
2024/03/14 07:25:31;;;;;;;12.37;7.20;;;;;;;12.00;100.00;100889.06;5048681;28;20405;-70
2024/03/14 07:28:00;;;;;;;8.73;6.47;;;;;;;12.03;100.00;100891.34;5031392;28;20836;-70
2024/03/14 07:30:30;;;;;;;14.77;6.53;;;;;;;12.13;100.00;100899.88;5033204;28;20887;-69
2024/03/14 07:33:00;;;;;;;14.30;6.47;;;;;;;12.00;100.00;100899.91;5052513;28;20797;-69
2024/03/14 07:35:30;;;;;;;7.60;4.97;;;;;;;11.96;100.00;100902.19;5050991;28;20929;-69
2024/03/14 07:38:00;;;;;;;7.57;4.77;;;;;;;11.98;100.00;100902.00;5026016;28;20852;-69
2024/03/14 07:40:32;;;;;;;12.63;6.50;;;;;;;12.01;100.00;100906.97;5049477;28;20946;-69
2024/03/14 07:43:02;;;;;;;13.57;6.23;;;;;;;12.10;100.00;100909.25;5029801;28;20438;-68
2024/03/14 07:45:31;;;;;;;16.13;9.03;;;;;;;12.10;100.00;100911.16;5029328;28;20427;-70
2024/03/14 07:48:01;;;;;;;10.30;7.87;;;;;;;11.97;100.00;100916.59;5050018;28;20431;-69
2024/03/14 07:50:30;;;;;;;10.67;6.67;;;;;;;12.13;100.00;100913.44;5051833;28;20449;-68
2024/03/14 07:52:59;;;;;;;8.77;5.10;;;;;;;12.15;100.00;100920.31;5034956;28;20483;-69
2024/03/14 07:55:28;;;;;;;10.97;6.83;;;;;;;12.12;100.00;100919.91;5050809;28;20431;-68
2024/03/14 07:57:57;;;;;;;11.60;7.37;;;;;;;12.32;100.00;100915.28;5047478;28;20467;-68
2024/03/14 08:00:31;;;;;;;9.20;5.67;;;;;;;12.35;100.00;100914.84;5047489;28;20454;-68
2024/03/14 08:03:01;;;;;;;11.83;6.27;;;;;;;12.41;100.00;100919.41;5048417;28;20442;-69
2024/03/14 08:05:31;;;;;;;11.23;4.80;;;;;;;12.42;100.00;100923.81;5048920;28;20750;-68
2024/03/14 08:08:02;;;;;;;10.67;7.23;;;;;;;12.49;100.00;100921.88;5033414;28;20401;-69
2024/03/14 08:10:47;;;;;;;22.63;8.50;;;;;;;12.60;100.00;100926.66;5049080;28;20478;-69
2024/03/14 08:13:21;;;;;;;15.27;6.77;;;;;;;12.69;100.00;100926.41;5032520;28;20850;-69
2024/03/14 08:15:54;;;;;;;8.30;4.53;;;;;;;12.75;100.00;100926.41;5048003;28;20776;-69
2024/03/14 08:18:24;;;;;;;12.70;7.03;;;;;;;12.75;100.00;100920.97;5028187;28;20779;-68
2024/03/14 08:20:57;;;;;;;10.23;5.90;;;;;;;12.84;100.00;100924.25;5032348;28;20846;-68
2024/03/14 08:23:28;;;;;;;16.00;5.77;;;;;;;12.82;100.00;100926.38;5032569;28;20436;-68
2024/03/14 08:25:59;;;;;;;11.13;6.83;;;;;;;12.75;100.00;100931.00;5047780;28;20427;-69
2024/03/14 08:28:28;;;;;;;16.30;7.00;;;;;;;12.97;100.00;100929.66;5048472;28;20768;-68
2024/03/14 08:30:58;;;;;;;12.30;7.53;;;;;;;13.05;100.00;100926.66;5050744;28;20459;-68
2024/03/14 08:33:27;;;;;;;14.30;7.00;;;;;;;13.23;100.00;100920.53;5029930;28;20403;-69
2024/03/14 08:35:57;;;;;;;10.10;5.07;;;;;;;13.18;100.00;100929.34;5051193;28;20401;-68
2024/03/14 08:38:26;;;;;;;10.10;5.73;;;;;;;13.38;100.00;100932.75;5052103;28;20401;-68
2024/03/14 08:40:57;;;;;;;7.60;4.87;;;;;;;13.53;100.00;100928.91;5039977;28;20410;-70
2024/03/14 08:43:25;;;;;;;11.17;6.67;;;;;;;13.52;100.00;100927.22;5050187;28;20439;-68
2024/03/14 08:45:55;;;;;;;5.97;5.20;;;;;;;13.51;100.00;100925.59;5031112;28;20420;-68
2024/03/14 08:48:24;;;;;;;11.40;4.40;;;;;;;13.40;100.00;100927.94;5035260;28;20900;-69
2024/03/14 08:50:54;;;;;;;10.20;6.33;;;;;;;13.62;100.00;100933.84;5048046;28;20471;-70
2024/03/14 08:53:23;;;;;;;12.70;5.70;;;;;;;13.98;100.00;100927.69;5049144;28;20489;-69
2024/03/14 08:55:54;;;;;;;14.20;7.27;;;;;;;13.98;99.66;100935.00;5026138;28;20787;-69
2024/03/14 08:58:25;;;;;;;13.73;6.57;;;;;;;13.90;99.73;100928.78;5031978;28;20835;-69
2024/03/14 09:00:56;;;;;;;9.70;5.57;;;;;;;13.96;99.93;100935.22;5029429;28;20415;-69
2024/03/14 09:03:25;;;;;;;11.67;5.47;;;;;;;14.37;96.65;100931.94;5052673;28;20444;-67
2024/03/14 09:05:54;;;;;;;11.90;7.90;;;;;;;14.29;94.76;100930.28;5027213;28;20865;-68
2024/03/14 09:08:24;;;;;;;7.47;4.43;;;;;;;14.34;94.11;100935.03;5028564;28;20456;-69
2024/03/14 09:10:54;;;;;;;10.43;7.30;;;;;;;14.26;95.47;100933.47;5042428;28;20449;-69
2024/03/14 09:13:25;;;;;;;6.70;6.10;;;;;;;14.30;94.92;100928.41;5052767;28;20917;-70
2024/03/14 09:15:55;;;;;;;10.27;5.80;;;;;;;14.25;95.25;100922.78;5032542;28;20518;-68
2024/03/14 09:18:25;;;;;;;6.67;5.60;;;;;;;14.55;93.59;100925.66;5056640;28;20470;-67
2024/03/14 09:20:58;;;;;;;10.57;7.23;;;;;;;14.24;93.64;100927.41;5053122;28;20419;-69
2024/03/14 09:23:29;;;;;;;7.37;5.70;;;;;;;14.14;92.69;100921.66;5058443;28;20764;-68
2024/03/14 09:25:58;;;;;;;8.23;6.30;;;;;;;14.25;90.64;100922.78;5035777;28;20527;-70
2024/03/14 09:28:27;;;;;;;9.73;6.73;;;;;;;14.74;90.27;100928.13;5038035;28;20409;-69
2024/03/14 09:31:00;;;;;;;9.77;6.43;;;;;;;14.96;87.12;100920.28;5031877;28;20462;-69
2024/03/14 09:33:30;;;;;;;10.43;4.57;;;;;;;15.16;85.75;100926.28;5049321;28;20402;-70
2024/03/14 09:36:00;;;;;;;6.67;5.13;;;;;;;15.38;85.03;100929.34;5055964;28;20736;-69
2024/03/14 09:38:29;;;;;;;12.10;7.10;;;;;;;15.49;84.15;100933.19;5053422;28;20498;-68
2024/03/14 09:40:59;;;;;;;8.47;5.83;;;;;;;15.57;83.89;100935.59;5055314;28;20423;-69
2024/03/14 09:43:42;;;;;;;10.90;6.83;;;;;;;15.67;83.27;100927.66;5038887;28;20402;-69
2024/03/14 09:46:11;;;;;;;7.63;5.27;;;;;;;15.32;83.33;100929.44;5051023;28;20519;-68
2024/03/14 09:48:40;;;;;;;8.40;6.17;;;;;;;15.49;82.86;100928.53;5036070;28;20423;-69
2024/03/14 09:51:09;;;;;;;7.20;5.07;;;;;;;15.71;81.72;100920.66;5033286;28;20876;-69
2024/03/14 09:53:39;;;;;;;12.03;8.20;;;;;;;15.90;81.09;100935.03;5038333;28;20434;-69
2024/03/14 09:56:08;;;;;;;10.63;7.97;;;;;;;16.07;80.88;100925.91;5051098;28;20832;-68
2024/03/14 09:58:37;;;;;;;14.97;6.10;;;;;;;15.79;79.09;100930.38;5031892;28;20442;-68
2024/03/14 10:01:09;;;;;;;9.63;5.70;;;;;;;15.28;82.07;100922.78;5054140;28;20390;-67
2024/03/14 10:03:39;;;;;;;9.80;5.80;;;;;;;15.58;80.97;100923.63;5036712;28;20984;-69
2024/03/14 10:06:17;;;;;;;9.60;5.60;;;;;;;15.52;81.89;100924.53;5054544;28;20420;-70
2024/03/14 10:08:47;;;;;;;9.53;7.00;;;;;;;16.05;81.07;100922.59;5037698;28;20467;-69
2024/03/14 10:11:18;;;;;;;9.10;5.73;;;;;;;16.02;79.38;100924.97;5033438;28;20455;-69
2024/03/14 10:13:49;;;;;;;14.47;5.70;;;;;;;15.95;78.78;100925.06;5053687;28;20398;-70
2024/03/14 10:16:18;;;;;;;6.77;4.50;;;;;;;15.81;78.07;100920.91;5030891;28;20522;-71
2024/03/14 10:18:48;;;;;;;7.70;5.33;;;;;;;15.76;78.98;100918.06;5054063;28;20452;-70
2024/03/14 10:21:16;;;;;;;9.93;5.63;;;;;;;16.08;77.95;100919.38;5022935;28;20519;-70
2024/03/14 10:23:45;;;;;;;8.53;4.43;;;;;;;16.37;76.93;100916.75;5049809;28;20447;-70
2024/03/14 10:26:14;;;;;;;8.43;4.60;;;;;;;15.63;75.57;100912.84;5032975;28;20428;-70
2024/03/14 10:28:43;;;;;;;6.90;3.47;;;;;;;15.51;78.08;100917.41;5027856;28;20413;-69
2024/03/14 10:44:59;;;;;;;6.77;5.47;;;;;;;16.28;74.25;100904.53;5066250;27;20734;-70
2024/03/14 10:47:33;;;;;;;9.07;6.30;;;;;;;16.32;74.39;100898.34;5049735;28;20965;-69
2024/03/14 10:50:09;;;;;;;6.33;5.37;;;;;;;15.94;74.33;100901.56;5036535;28;20458;-70
2024/03/14 10:52:39;;;;;;;5.83;4.40;;;;;;;15.78;76.09;100887.81;5048580;28;20604;-69
2024/03/14 10:55:10;;;;;;;5.03;4.03;;;;;;;15.96;75.28;100904.91;5032536;28;20856;-71
2024/03/14 10:57:39;;;;;;;9.13;4.50;;;;;;;16.61;72.20;100892.97;5035998;28;20402;-70
2024/03/14 11:00:14;;;;;;;4.20;3.50;;;;;;;16.32;69.06;100892.88;5027566;28;20502;-70
2024/03/14 11:02:43;;;;;;;9.20;4.37;;;;;;;16.63;68.57;100886.19;5013931;28;20478;-71
2024/03/14 11:05:12;;;;;;;8.20;4.90;;;;;;;16.87;68.08;100893.25;5016305;28;20410;-70
2024/03/14 11:07:41;;;;;;;7.00;4.37;;;;;;;16.70;66.03;100883.34;5030731;28;20435;-71
2024/03/14 11:10:10;;;;;;;3.60;3.30;;;;;;;16.93;65.65;100892.28;5033807;28;20936;-71
2024/03/14 11:12:39;;;;;;;5.43;4.23;;;;;;;17.11;65.37;100888.50;5033923;28;20455;-72
2024/03/14 11:15:09;;;;;;;5.40;3.53;;;;;;;17.28;65.06;100885.81;5029657;28;20443;-69
2024/03/14 11:17:39;;;;;;;4.43;4.00;;;;;;;16.94;65.59;100882.97;5008252;28;20465;-70
2024/03/14 11:20:09;;;;;;;5.20;3.20;;;;;;;17.22;65.42;100886.78;5031382;28;20428;-70
2024/03/14 11:22:42;;;;;;;3.67;2.33;;;;;;;17.03;65.08;100879.88;5028066;28;20399;-75
2024/03/14 11:25:12;;;;;;;4.97;2.90;;;;;;;17.37;64.66;100873.41;5035012;28;20395;-70
2024/03/14 11:27:41;;;;;;;4.87;3.20;;;;;;;17.36;62.35;100877.19;5031072;28;20431;-71
2024/03/14 11:30:15;;;;;;;5.17;3.53;;;;;;;17.21;62.77;100876.94;5031294;28;20979;-70
2024/03/14 11:32:54;;;;;;;5.80;2.77;;;;;;;17.12;61.57;100875.66;5031812;28;20437;-70
2024/03/14 11:35:38;;;;;;;4.33;3.50;;;;;;;17.14;62.00;100876.22;5032168;28;20479;-71
2024/03/14 11:38:24;;;;;;;4.00;2.30;;;;;;;16.80;61.83;100875.31;5021356;28;20529;-71
2024/03/14 11:40:54;;;;;;;4.30;2.80;;;;;;;16.95;61.12;100881.91;5040522;28;20476;-70
2024/03/14 11:43:27;;;;;;;3.13;2.50;;;;;;;16.85;61.17;100859.84;5027310;28;20460;-70
2024/03/14 11:45:59;;;;;;;1.70;1.47;;;;;;;16.70;60.75;100862.28;5015923;28;20408;-70